Date,TemperatureHighF,TemperatureAvgF,TemperatureLowF,DewpointHighF,DewpointAvgF,DewpointLowF,HumidityHigh,HumidityAvg,HumidityLow,PressureMaxIn,PressureMinIn,WindSpeedMaxMPH,WindSpeedAvgMPH,GustSpeedMaxMPH,PrecipitationSumIn
2013-1-1,60.7,50.5,39.2,34.2,23.6,12.5,75,42,18,30.24,30.10,8,4,10,0.00
2013-1-2,66.3,56.2,46.4,45.7,22.6,11.2,77,31,14,30.15,30.05,13,4,18,0.00
2013-1-3,69.8,51.0,44.6,35.2,14.1,-99.9,55,30,12,30.17,30.06,9,-68,15,0.00
2013-1-4,66.4,51.3,40.2,39.8,25.3,10.2,64,39,11,30.26,30.17,9,3,11,0.00
2013-1-5,62.1,49.6,38.3,45.6,32.6,20.7,80,54,28,30.30,30.19,7,2,8,0.00
2013-1-6,55.3,48.5,41.8,48.8,43.2,39.5,92,82,64,30.20,30.03,11,3,18,0.04
2013-1-7,61.2,49.3,37.5,41.7,36.2,29.3,88,64,31,30.15,30.02,7,3,9,0.00
2013-1-8,69.1,54.8,44.6,49.9,38.0,27.9,82,55,31,30.11,30.03,9,3,12,0.00
2013-1-9,59.8,51.0,43.2,53.1,45.5,37.9,89,82,62,30.13,30.01,7,2,10,0.00
2013-1-10,57.3,50.6,40.5,47.9,35.6,19.8,89,59,23,30.13,29.93,14,5,18,0.00
2013-1-11,55.6,44.6,33.2,30.9,24.8,13.4,75,49,21,30.21,30.07,14,4,16,0.00
2013-1-12,56.5,43.8,34.0,29.6,24.8,16.5,69,50,22,30.18,30.10,7,3,13,0.00
2013-1-13,56.2,45.0,35.3,32.3,23.5,7.3,66,45,21,30.19,30.07,9,3,16,0.00
2013-1-14,55.9,46.2,39.8,30.8,8.4,1.7,55,22,12,30.36,30.16,16,5,18,0.00
2013-1-15,60.5,47.8,37.3,41.9,22.8,3.5,74,40,17,30.45,30.34,12,3,13,0.01
2013-1-16,72.7,53.9,39.3,40.6,29.1,24.0,64,42,17,30.36,30.15,12,3,16,0.00
2013-1-17,76.7,65.2,47.0,26.9,16.7,10.6,43,17,8,30.18,30.05,10,4,19,0.00
2013-1-18,76.1,66.5,58.1,21.5,14.6,12.3,18,14,10,30.14,30.05,9,3,13,0.00
2013-1-19,77.6,65.9,57.0,36.3,16.1,11.0,39,16,8,30.17,30.06,7,2,12,0.00
2013-1-20,78.6,62.7,49.4,31.9,16.9,8.3,37,19,7,30.14,30.00,6,2,14,0.00
2013-1-21,80.9,68.4,55.7,25.1,11.5,6.6,27,12,6,30.09,29.98,11,3,14,0.00
2013-1-22,79.0,61.5,52.0,39.8,21.5,11.0,49,23,8,30.08,29.99,11,3,14,0.00
2013-1-23,74.2,60.5,53.5,48.5,32.6,19.7,81,38,20,30.11,29.99,8,3,11,0.06
2013-1-24,63.1,57.7,52.8,56.4,53.2,48.2,92,85,72,30.17,30.08,8,2,15,0.61
2013-1-25,62.7,59.5,56.9,55.2,52.7,48.0,90,79,59,30.13,29.97,5,2,7,0.14
2013-1-26,65.2,57.7,53.6,59.6,53.9,48.9,94,87,71,29.99,29.90,7,2,11,0.12
2013-1-27,60.7,54.7,43.2,51.6,42.4,25.6,89,66,26,30.04,29.92,12,4,16,0.00
2013-1-28,59.6,48.6,38.0,39.0,32.7,24.7,77,56,29,30.19,30.04,12,4,16,0.00
2013-1-29,58.1,47.6,40.2,44.7,36.1,-99.9,82,67,45,30.23,30.14,9,-4,10,0.00
2013-1-30,63.9,51.1,40.1,47.1,40.7,35.4,84,69,43,30.34,30.22,9,2,13,0.00
2013-1-31,71.5,55.8,45.1,48.7,42.0,37.0,79,62,33,30.25,30.11,11,3,11,0.00
2013-2-1,72.7,57.3,48.9,51.7,44.1,36.8,89,63,31,30.17,30.11,16,3,22,0.00
2013-2-2,71.1,60.4,51.3,52.7,46.4,40.3,86,61,34,30.19,30.11,13,3,16,0.00
2013-2-3,66.6,57.3,48.9,53.2,48.8,44.7,90,74,52,30.15,30.02,8,3,10,0.00
2013-2-4,64.0,53.1,43.1,51.7,47.1,40.9,93,81,62,30.10,29.99,7,2,9,0.01
2013-2-5,55.7,52.3,47.4,50.0,47.6,43.7,89,84,78,30.10,30.00,6,2,8,0.00
2013-2-6,62.4,53.5,45.1,50.6,46.5,41.5,89,78,52,30.11,30.00,8,2,12,0.00
2013-2-7,59.5,50.6,40.6,47.6,43.4,36.3,89,77,62,30.14,29.98,8,3,14,0.00
2013-2-8,53.9,49.0,41.1,40.2,38.5,36.1,83,68,55,29.98,29.87,12,6,20,0.00
2013-2-9,58.7,46.7,35.6,43.0,36.1,30.1,86,69,35,30.10,29.94,8,3,13,0.00
2013-2-10,57.6,47.2,38.0,43.4,38.3,32.4,85,72,52,30.10,30.02,8,4,9,0.00
2013-2-11,64.7,49.2,38.5,44.2,35.5,16.5,86,65,17,30.24,30.07,10,4,15,0.00
2013-2-12,62.1,49.1,38.0,41.2,32.0,21.2,75,54,29,30.35,30.25,8,3,11,0.00
2013-2-13,62.9,50.2,39.2,46.8,38.1,29.7,82,65,32,30.27,30.14,9,3,12,0.00
2013-2-14,68.9,52.7,39.8,50.0,41.5,33.5,83,68,34,30.21,30.07,8,2,13,0.00
2013-2-15,80.7,54.7,49.6,40.2,-2.3,-99.9,70,16,11,30.19,30.11,13,-221,13,0.00
2013-2-16,77.2,65.1,47.3,40.7,25.7,17.5,55,25,11,30.15,29.97,9,2,10,0.00
2013-2-17,62.4,53.1,42.2,50.4,40.4,27.3,84,63,36,30.02,29.93,11,3,21,0.00
2013-2-18,60.4,54.4,48.0,48.4,46.3,43.4,88,75,57,30.06,29.94,12,4,16,0.00
2013-2-19,57.0,51.6,46.4,46.9,43.3,34.3,89,74,56,29.98,29.73,12,4,15,0.10
2013-2-20,62.7,51.6,41.5,40.3,29.5,21.6,66,44,23,29.99,29.73,13,6,17,0.00
2013-2-21,59.0,48.3,37.6,44.8,35.8,28.7,79,63,40,30.10,29.98,11,4,12,0.00
2013-2-22,62.3,51.0,40.8,46.0,36.9,30.2,83,61,36,30.19,30.10,10,4,14,0.00
2013-2-23,62.7,51.2,40.5,48.7,41.2,31.7,81,69,49,30.16,29.90,9,3,14,0.00
2013-2-24,67.4,55.2,45.5,38.7,22.6,8.6,76,33,10,30.20,30.01,12,5,18,0.00
2013-2-25,64.8,51.9,40.5,46.2,28.6,15.2,80,45,16,30.23,30.07,10,3,13,0.00
2013-2-26,67.4,52.4,37.3,45.6,35.9,29.7,75,57,26,30.13,30.00,9,2,12,0.00
2013-2-27,75.4,59.4,46.4,33.8,20.3,13.3,60,24,10,30.29,30.12,10,3,15,0.00
2013-2-28,74.2,58.8,46.0,45.6,30.1,20.4,64,37,14,30.33,30.24,10,4,12,0.00
2013-3-1,84.1,65.9,53.1,45.2,28.9,19.4,58,29,10,30.30,30.16,10,4,12,0.00
2013-3-2,78.6,28.2,54.7,50.0,-44.7,-99.9,64,13,19,30.20,30.08,8,-592,10,0.00
2013-3-3,65.8,37.9,52.2,52.3,-2.1,-99.9,85,49,50,30.12,29.99,11,-344,15,0.00
2013-3-4,62.7,54.2,47.1,50.1,47.3,43.4,90,78,60,30.10,30.00,10,3,11,0.00
2013-3-5,60.5,53.6,47.3,49.0,47.0,43.3,88,79,65,30.13,30.03,10,3,11,0.00
2013-3-6,57.2,52.4,46.7,48.5,45.7,42.0,87,78,58,30.15,30.01,10,3,12,0.00
2013-3-7,59.5,53.9,48.8,49.0,46.6,42.0,90,77,53,30.02,29.84,10,3,14,0.50
2013-3-8,58.0,52.0,45.4,47.0,43.9,39.3,94,75,56,30.02,29.79,12,5,15,0.29
2013-3-9,62.6,53.6,42.9,48.0,43.0,38.0,86,68,46,30.22,30.01,11,4,17,0.00
2013-3-10,71.6,56.1,43.5,49.4,40.0,25.0,85,59,18,30.28,30.17,10,4,20,0.00
2013-3-11,69.3,55.5,42.3,48.5,41.6,32.6,82,63,30,30.19,30.05,8,2,13,0.00
2013-3-12,68.3,56.5,44.5,51.9,45.7,38.7,87,69,43,30.08,30.03,8,2,12,0.00
2013-3-13,68.9,56.0,46.7,52.7,49.1,44.2,93,79,53,30.11,30.04,7,2,12,0.00
2013-3-14,63.7,55.1,48.2,52.7,50.2,46.6,95,84,63,30.11,30.02,8,2,15,0.01
2013-3-15,62.6,56.2,52.9,54.2,51.7,50.1,93,85,71,30.03,29.94,11,3,16,0.00
2013-3-16,60.4,53.8,50.5,51.9,50.1,47.4,95,88,70,29.99,29.89,8,2,15,0.00
2013-3-17,63.2,54.1,48.0,54.5,49.5,45.2,95,85,65,30.01,29.93,11,3,16,0.00
2013-3-18,61.3,54.4,46.5,50.6,48.2,43.7,91,80,65,30.08,29.98,7,2,12,0.00
2013-3-19,64.0,56.2,47.9,52.8,49.7,44.8,89,80,62,30.12,30.03,9,3,15,0.00
2013-3-20,66.8,58.5,53.1,53.8,50.5,47.9,89,76,54,30.10,29.96,8,2,15,0.00
2013-3-21,66.8,57.7,48.5,53.0,49.5,44.5,87,75,59,29.96,29.80,12,3,17,0.00
2013-3-22,69.9,57.8,45.7,49.4,44.5,38.7,88,64,32,29.90,29.78,9,2,15,0.00
2013-3-23,66.6,55.6,43.1,51.9,43.6,29.1,85,65,38,30.02,29.89,10,3,18,0.00
2013-3-24,67.6,56.8,44.8,51.2,46.9,41.2,88,71,44,30.02,29.90,9,2,14,0.00
2013-3-25,67.3,56.0,44.8,54.3,48.3,40.0,88,76,58,29.98,29.90,9,3,14,0.00
2013-3-26,64.3,55.9,47.3,52.9,49.4,44.8,91,80,63,29.97,29.91,9,3,19,0.01
2013-3-27,65.5,56.9,49.2,51.7,49.4,46.1,90,77,55,30.05,29.93,10,3,19,0.00
2013-3-28,64.8,56.5,52.5,52.9,51.1,49.3,90,83,64,30.07,30.02,9,3,16,0.00
2013-3-29,65.6,56.5,49.2,54.1,51.7,46.7,92,84,65,30.13,30.05,10,3,16,0.00
2013-3-30,65.5,57.9,54.4,53.5,51.9,50.7,91,81,63,30.14,30.06,12,3,17,0.00
2013-3-31,63.5,58.3,54.1,58.8,53.4,50.7,94,84,72,30.13,30.06,12,4,20,0.04
2013-4-1,63.5,57.4,53.1,53.6,51.6,49.0,92,81,67,30.18,30.07,8,4,17,0.00
2013-4-2,67.3,57.6,48.9,53.3,50.2,45.8,90,77,57,30.10,30.00,10,3,18,0.00
2013-4-3,65.0,50.8,52.0,54.6,35.2,-99.9,91,75,69,30.10,30.01,10,-110,16,0.00
2013-4-4,66.8,58.8,55.1,54.7,52.9,50.8,90,82,59,30.13,30.02,13,4,22,0.00
2013-4-5,67.6,60.4,55.3,55.0,53.1,50.3,85,77,60,30.11,29.98,12,3,21,0.00
2013-4-6,69.4,59.7,50.4,54.3,51.4,47.0,89,75,54,30.09,29.94,10,3,17,0.00
2013-4-7,73.3,60.9,49.8,55.4,50.6,46.4,88,71,42,29.97,29.77,11,4,21,0.00
2013-4-8,69.8,59.4,51.3,49.9,40.8,28.8,87,54,22,29.83,29.68,21,9,34,0.00
2013-4-9,69.3,58.0,44.9,47.3,40.9,27.4,75,56,22,30.00,29.83,14,4,24,0.00
2013-4-10,77.7,62.1,48.5,49.5,39.2,25.8,79,48,15,30.10,29.97,10,4,17,0.00
2013-4-11,66.9,57.0,47.3,51.3,47.3,39.2,83,71,51,29.98,29.78,10,3,18,0.00
2013-4-12,65.0,56.7,51.1,52.3,50.3,47.4,89,80,62,29.88,29.81,9,3,16,0.00
2013-4-13,59.8,55.5,52.8,53.1,51.3,49.9,91,86,77,29.92,29.85,8,3,14,0.00
2013-4-14,62.9,57.1,54.1,52.8,50.8,48.0,92,80,64,29.89,29.83,7,2,14,0.00
2013-4-15,63.4,56.9,51.0,51.2,47.8,41.9,85,72,57,29.91,29.84,9,5,17,0.00
2013-4-16,62.1,54.2,44.5,45.1,41.8,36.2,85,64,42,30.02,29.87,14,5,30,0.00
2013-4-17,66.8,57.0,44.1,45.1,39.7,24.1,81,56,20,30.13,30.02,13,4,25,0.00
2013-4-18,77.6,62.5,49.4,45.7,26.9,14.5,67,31,10,30.20,30.13,14,5,27,0.00
2013-4-19,77.9,62.2,48.5,50.8,37.3,23.7,82,44,14,30.17,29.97,9,4,17,0.00
2013-4-20,76.8,62.3,49.5,53.3,48.6,43.0,85,63,32,30.00,29.88,13,3,21,0.00
2013-4-21,72.3,61.4,50.5,55.6,52.2,45.5,89,73,48,30.00,29.93,10,4,17,0.00
2013-4-22,66.4,60.1,57.0,53.5,52.3,51.2,85,76,61,30.01,29.90,9,4,16,0.00
2013-4-23,67.6,60.5,56.3,52.9,50.8,49.0,85,71,56,29.97,29.88,9,4,18,0.00
2013-4-24,59.3,57.4,55.4,54.0,52.0,49.9,90,82,73,29.99,29.91,8,2,15,0.00
2013-4-25,70.1,60.6,52.6,51.9,48.7,44.0,86,67,42,30.13,29.96,10,3,17,0.00
2013-4-26,69.4,59.3,49.6,54.3,49.7,44.9,86,72,51,30.16,30.11,9,4,15,0.00
2013-4-27,68.4,59.2,50.5,54.7,51.7,46.8,92,77,57,30.14,30.00,8,3,17,0.00
2013-4-28,66.9,58.8,54.5,55.5,53.3,51.3,89,82,65,30.01,29.86,9,3,16,0.00
2013-4-29,64.8,58.6,53.5,55.9,53.5,50.1,91,83,71,29.91,29.80,9,3,17,0.00
2013-4-30,64.8,60.0,56.6,54.3,53.2,51.8,90,79,64,29.90,29.83,12,3,19,0.00
2013-5-1,71.1,63.7,57.5,55.1,53.3,51.8,86,70,52,30.09,29.90,10,4,16,0.00
2013-5-2,91.8,68.3,50.1,55.1,39.4,10.2,91,53,5,30.11,30.02,14,5,34,0.00
2013-5-3,90.7,71.0,56.3,56.1,38.5,19.7,82,38,8,30.03,29.76,9,4,16,0.00
2013-5-4,71.5,57.4,52.0,56.4,42.2,-99.9,89,68,56,29.83,29.74,19,-63,31,0.00
2013-5-5,64.0,60.4,57.0,53.5,50.9,48.9,79,71,58,29.93,29.82,16,8,24,0.00
2013-5-6,68.1,61.6,56.6,57.2,53.6,48.7,91,76,52,30.02,29.88,12,4,21,0.08
2013-5-7,70.3,63.0,57.8,54.6,52.0,46.5,83,69,44,30.06,29.98,11,4,20,0.00
2013-5-8,68.6,61.9,53.8,54.7,51.9,47.6,86,71,49,30.10,30.06,11,4,19,0.00
2013-5-9,69.8,60.9,51.7,55.1,51.8,47.0,84,73,53,30.09,30.02,9,4,16,0.00
2013-5-10,73.2,62.6,53.9,56.9,54.3,49.8,87,75,52,30.11,30.00,11,4,18,0.00
2013-5-11,74.6,63.3,56.5,59.6,56.7,53.7,92,80,59,30.07,30.01,9,3,17,0.00
2013-5-12,79.2,67.3,57.3,60.1,57.6,54.7,92,73,48,30.05,29.92,8,3,13,0.00
2013-5-13,74.6,65.8,58.3,58.9,56.7,53.9,87,74,55,29.99,29.91,7,3,13,0.00
2013-5-14,68.9,61.0,56.6,55.5,53.2,50.9,89,76,61,30.00,29.92,11,4,17,0.00
2013-5-15,68.8,60.8,52.2,55.7,51.8,47.8,86,73,57,30.05,29.95,10,3,14,0.00
2013-5-16,68.9,59.4,52.3,55.6,52.2,48.2,87,78,61,29.99,29.91,7,2,13,0.00
2013-5-17,69.8,61.8,53.9,55.9,52.4,49.2,86,72,53,29.99,29.91,10,3,18,0.00
2013-5-18,70.9,62.1,51.7,54.4,50.9,46.5,84,68,43,30.04,29.97,10,3,18,0.00
2013-5-19,73.2,62.5,51.0,56.6,52.5,46.4,86,71,52,29.99,29.86,9,3,17,0.00
2013-5-20,74.6,65.2,53.1,58.1,54.0,48.7,86,69,44,29.96,29.88,9,3,16,0.00
2013-5-21,72.8,63.9,56.3,60.0,55.5,50.2,88,75,61,29.94,29.83,10,4,21,0.00
2013-5-22,69.6,60.7,55.4,54.9,47.7,-99.9,81,66,49,29.85,29.78,10,-17,18,0.00
2013-5-23,69.1,60.5,52.8,51.6,48.4,45.2,80,66,43,29.94,29.82,10,4,18,0.00
2013-5-24,68.6,60.2,50.2,54.6,49.4,44.3,82,68,54,29.99,29.90,10,4,19,0.00
2013-5-25,68.6,60.4,50.4,54.4,50.3,44.8,82,70,57,30.03,29.96,13,4,21,0.00
2013-5-26,69.9,61.5,50.7,55.2,51.7,46.1,86,71,54,30.05,29.99,11,4,20,0.00
2013-5-27,72.8,62.8,52.8,55.3,52.8,48.4,86,71,51,30.01,29.84,9,3,15,0.00
2013-5-28,74.7,65.2,55.3,57.2,54.5,50.3,85,69,51,29.88,29.73,11,4,18,0.00
2013-5-29,74.4,65.0,56.5,57.2,53.8,51.4,84,68,48,29.82,29.71,9,4,16,0.00
2013-5-30,74.0,64.8,54.5,58.7,54.1,49.8,85,69,55,29.86,29.76,9,3,16,0.00
2013-5-31,72.8,65.5,58.4,58.8,56.4,52.1,86,73,58,29.91,29.82,9,3,17,0.00
2013-6-1,73.0,63.9,58.1,60.2,54.3,-99.9,89,75,61,29.85,29.75,9,-17,16,0.00
2013-6-2,68.3,63.1,59.8,59.7,57.7,55.6,89,82,73,29.83,29.77,9,3,15,0.00
2013-6-3,71.3,64.3,59.8,57.9,56.7,54.8,90,77,62,29.90,29.79,12,4,21,0.00
2013-6-4,70.9,63.7,57.8,57.7,55.5,51.7,84,75,62,29.97,29.89,9,4,17,0.00
2013-6-5,68.6,60.9,53.9,56.2,53.4,49.8,86,77,63,30.02,29.94,10,4,17,0.00
2013-6-6,68.4,61.6,57.8,56.9,54.8,53.0,86,79,64,29.96,29.89,8,3,17,0.00
2013-6-7,70.3,62.2,58.7,58.0,55.8,54.5,87,80,64,29.91,29.79,8,3,16,0.00
2013-6-8,66.3,62.2,60.1,57.3,56.3,55.6,86,81,72,29.91,29.79,10,4,18,0.00
2013-6-9,66.3,62.4,59.6,59.3,56.6,54.2,92,82,74,29.93,29.88,10,4,17,0.01
2013-6-10,73.2,66.2,61.5,57.8,54.7,51.9,84,68,49,29.96,29.89,11,4,18,0.00
2013-6-11,74.4,65.4,56.7,59.6,57.0,52.6,88,75,57,29.94,29.88,9,4,17,0.00
2013-6-12,69.9,62.9,59.5,58.2,56.9,55.9,89,81,64,30.03,29.93,9,3,19,0.00
2013-6-13,70.8,64.4,59.5,58.7,56.8,53.6,89,77,63,30.02,29.90,9,3,16,0.00
2013-6-14,72.5,63.7,53.9,59.2,56.0,50.1,88,77,61,29.92,29.85,10,4,21,0.00
2013-6-15,71.3,63.7,59.3,57.7,56.2,54.9,89,77,59,29.98,29.88,9,4,21,0.00
2013-6-16,70.9,64.0,58.4,58.1,55.8,54.5,87,75,60,30.04,29.95,9,3,17,0.00
2013-6-17,73.5,63.9,56.7,58.7,56.5,53.2,92,78,56,30.00,29.88,9,3,19,0.00
2013-6-18,71.8,64.7,55.7,58.2,54.9,51.6,87,71,57,29.94,29.83,10,4,18,0.00
2013-6-19,79.4,66.1,54.5,56.9,52.8,43.8,85,64,29,29.88,29.78,9,3,17,0.00
2013-6-20,76.5,65.6,53.2,59.7,53.1,47.5,82,65,46,29.86,29.80,11,4,21,0.00
2013-6-21,75.1,66.1,54.5,59.0,54.4,49.0,83,67,52,29.91,29.83,10,3,17,0.00
2013-6-22,74.2,64.7,55.9,59.1,55.2,49.6,83,72,55,29.92,29.83,11,4,20,0.00
2013-6-23,69.9,63.3,56.5,58.2,55.5,51.1,86,76,63,29.89,29.80,9,3,15,0.00
2013-6-24,72.1,65.1,56.6,59.8,56.9,52.5,87,76,59,29.94,29.83,11,4,22,0.00
2013-6-25,71.1,65.9,61.5,60.0,58.5,57.2,88,77,65,30.00,29.91,10,3,19,0.00
2013-6-26,76.8,68.7,59.8,61.9,59.6,56.6,90,74,55,29.99,29.91,9,3,15,0.00
2013-6-27,81.1,69.0,62.9,63.4,60.8,58.3,89,76,54,30.02,29.96,9,2,15,0.00
2013-6-28,81.6,69.6,62.0,63.5,60.5,58.3,92,74,51,29.98,29.88,8,4,14,0.00
2013-6-29,84.1,72.5,61.6,62.9,60.4,57.6,87,68,46,29.88,29.73,9,3,17,0.00
2013-6-30,85.3,72.4,64.2,64.5,61.4,57.8,88,70,41,29.82,29.71,14,4,25,0.00
2013-7-1,80.7,70.7,66.0,64.9,63.3,61.3,91,78,57,29.89,29.80,10,4,16,0.00
2013-7-2,72.3,66.0,63.2,63.2,61.9,60.8,93,87,72,30.00,29.88,10,3,18,0.00
2013-7-3,75.3,68.3,63.5,62.8,60.8,59.6,88,78,63,29.93,29.82,10,4,17,0.00
2013-7-4,73.9,66.9,62.7,62.0,60.2,59.2,90,80,62,29.85,29.76,9,4,16,0.00
2013-7-5,74.9,68.5,64.3,61.9,60.6,59.0,84,76,63,29.86,29.77,12,4,17,0.00
2013-7-6,72.8,66.5,62.7,62.6,60.3,58.2,86,81,69,29.84,29.76,9,3,15,0.00
2013-7-7,73.3,65.8,61.3,60.7,59.1,57.8,90,80,64,29.86,29.79,11,4,19,0.00
2013-7-8,74.4,66.0,60.2,61.0,58.6,56.0,90,78,62,29.94,29.86,9,3,16,0.00
2013-7-9,78.8,67.3,60.5,61.5,58.6,55.9,92,75,48,30.00,29.91,9,3,16,0.00
2013-7-10,77.0,67.0,60.7,62.5,59.8,57.4,89,78,60,29.97,29.90,7,2,14,0.00
2013-7-11,75.8,68.3,63.5,64.4,61.6,59.2,86,80,65,29.97,29.88,11,3,15,0.00
2013-7-12,73.2,65.5,61.2,62.8,60.0,58.4,92,83,65,29.94,29.88,8,3,16,0.00
2013-7-13,73.2,65.4,60.9,60.7,58.6,56.4,90,79,64,29.97,29.87,9,3,17,0.00
2013-7-14,74.6,66.4,57.8,60.8,57.6,53.8,88,74,54,29.94,29.82,8,3,14,0.00
2013-7-15,74.0,65.5,59.2,58.9,56.1,54.6,86,73,52,29.88,29.82,10,3,18,0.00
2013-7-16,74.9,64.0,53.8,58.8,54.8,49.8,91,74,50,29.98,29.87,9,3,19,0.00
2013-7-17,74.9,65.2,54.5,58.5,55.7,50.4,87,73,51,30.03,29.97,10,3,18,0.00
2013-7-18,73.7,64.5,57.0,60.0,56.5,53.8,89,76,57,29.99,29.87,9,3,15,0.00
2013-7-19,72.8,64.0,56.0,58.7,55.7,52.2,89,76,56,29.91,29.83,9,3,15,0.00
2013-7-20,73.2,64.9,57.5,61.3,57.9,53.7,88,79,65,29.88,29.78,9,3,16,0.00
2013-7-21,71.3,65.3,63.4,62.0,60.1,57.8,90,83,69,29.93,29.80,9,2,17,0.00
2013-7-22,74.9,67.2,62.4,62.0,60.3,58.3,91,79,61,29.99,29.91,9,4,16,0.02
2013-7-23,74.2,66.2,62.1,59.9,58.8,57.8,89,78,58,30.03,29.95,9,3,16,0.00
2013-7-24,69.9,63.6,60.2,59.6,57.9,57.0,90,82,69,29.99,29.91,9,3,16,0.00
2013-7-25,70.9,63.7,60.2,59.4,57.6,56.2,89,81,66,30.02,29.93,9,4,15,0.00
2013-7-26,72.3,64.2,60.2,60.4,57.5,56.3,88,79,61,30.10,30.00,8,3,15,0.00
2013-7-27,71.5,63.6,59.5,58.6,56.8,55.6,88,79,63,30.02,29.89,9,3,16,0.00
2013-7-28,66.8,62.4,58.9,58.6,56.7,55.0,88,82,74,29.93,29.88,8,3,17,0.00
2013-7-29,70.9,64.1,59.8,59.3,56.8,54.7,92,78,58,30.03,29.92,9,3,17,0.00
2013-7-30,70.8,63.3,58.0,57.3,55.7,53.5,86,77,61,30.14,30.03,8,3,17,0.00
2013-7-31,69.8,62.2,56.9,57.4,55.2,52.4,87,78,62,30.12,30.01,8,2,16,0.00
2013-8-1,70.6,63.7,59.3,56.9,55.8,54.7,85,76,60,30.03,29.91,8,3,16,0.00
2013-8-2,72.8,61.1,54.8,60.4,50.3,-99.9,87,74,61,29.97,29.91,8,-32,14,0.00
2013-8-3,71.1,63.8,59.8,58.9,57.0,55.6,88,79,64,30.00,29.94,8,3,18,0.00
2013-8-4,70.3,62.9,59.3,57.9,56.4,55.1,89,80,63,30.02,29.94,8,3,15,0.00
2013-8-5,71.1,62.9,57.8,58.1,56.2,54.8,92,80,57,30.01,29.92,8,3,14,0.00
2013-8-6,71.8,63.2,58.7,57.6,56.2,54.7,89,78,60,30.05,29.96,9,4,18,0.00
2013-8-7,70.3,63.4,58.4,57.7,56.1,54.5,88,78,61,30.08,29.98,9,3,17,0.00
2013-8-8,71.3,64.4,58.7,58.2,56.5,54.5,88,76,60,29.99,29.91,10,4,17,0.00
2013-8-9,71.1,64.1,59.6,58.2,56.2,54.6,85,76,60,29.96,29.90,11,4,19,0.00
2013-8-10,72.0,64.0,57.6,58.4,56.4,52.8,87,77,61,30.03,29.96,9,3,18,0.00
2013-8-11,71.6,64.4,60.1,58.8,57.4,56.2,87,79,62,30.00,29.90,10,3,16,0.00
2013-8-12,72.3,64.9,60.4,59.4,57.7,56.2,86,78,62,29.97,29.90,8,3,16,0.00
2013-8-13,72.5,64.5,60.4,60.2,58.1,56.3,89,80,63,29.98,29.88,8,3,14,0.00
2013-8-14,72.7,64.4,60.2,62.2,58.9,56.9,91,83,65,29.93,29.83,7,3,12,0.00
2013-8-15,74.0,65.1,60.4,62.2,59.7,57.7,92,83,65,29.94,29.88,8,3,16,0.00
2013-8-16,74.6,65.6,60.7,63.3,59.5,57.7,92,81,62,29.96,29.91,8,2,14,0.00
2013-8-17,71.6,64.9,60.9,60.5,58.7,57.5,92,81,64,29.96,29.82,9,3,17,0.00
2013-8-18,74.9,64.3,59.0,60.5,58.0,56.5,92,81,58,29.91,29.82,9,3,14,0.00
2013-8-19,73.5,64.7,59.9,61.6,58.8,56.8,90,82,62,29.96,29.86,8,3,16,0.00
2013-8-20,72.3,65.0,61.2,60.0,58.0,56.4,89,79,59,29.95,29.86,9,3,16,0.00
2013-8-21,72.7,65.2,57.3,59.4,56.9,53.5,87,75,56,29.94,29.85,9,3,16,0.00
2013-8-22,78.1,67.3,56.5,60.3,57.0,51.9,86,71,48,29.92,29.82,10,3,17,0.00
2013-8-23,75.4,66.0,56.2,60.6,56.5,51.4,88,73,53,29.86,29.75,9,3,15,0.00
2013-8-24,74.7,64.8,55.1,60.3,56.9,51.9,91,77,56,29.87,29.78,8,2,14,0.00
2013-8-25,75.4,65.4,57.6,60.7,58.3,55.6,93,79,57,29.92,29.84,8,2,13,0.00
2013-8-26,79.4,66.9,54.4,60.3,56.9,49.8,86,72,48,29.93,29.83,8,3,15,0.01
2013-8-27,77.2,67.8,63.4,61.6,59.4,57.9,87,76,55,29.85,29.78,9,3,15,0.00
2013-8-28,77.7,67.9,61.5,61.2,59.0,57.8,89,74,52,29.89,29.78,8,3,14,0.00
2013-8-29,82.0,68.2,61.3,62.1,56.1,-99.9,89,70,47,29.94,29.86,8,-18,15,0.00
2013-8-30,85.7,74.6,63.4,62.2,59.5,55.1,86,62,38,29.96,29.89,11,3,19,0.00
2013-8-31,87.6,77.7,70.8,65.5,62.9,59.5,79,62,41,29.96,29.88,9,3,19,0.00
2013-9-1,80.9,73.1,68.1,66.7,63.7,60.7,87,73,61,29.93,29.86,8,3,13,0.00
2013-9-2,79.9,71.2,65.5,65.8,63.5,61.3,87,77,61,29.92,29.80,8,3,14,0.00
2013-9-3,84.1,73.0,65.3,65.4,62.7,60.4,87,72,51,29.90,29.81,8,2,15,0.00
2013-9-4,80.1,70.9,64.8,63.0,61.1,59.7,85,72,54,29.92,29.84,10,3,16,0.00
2013-9-5,81.1,70.3,63.2,63.2,60.6,59.2,87,72,51,29.89,29.82,8,2,14,0.00
2013-9-6,82.8,70.2,62.0,62.5,60.1,57.8,87,72,46,29.87,29.79,9,2,14,0.00
2013-9-7,76.3,67.1,61.3,62.3,59.5,57.7,89,78,56,29.87,29.80,9,3,17,0.00
2013-9-8,72.0,64.6,59.9,61.2,58.3,56.8,91,81,62,29.86,29.76,9,3,15,0.00
2013-9-9,68.9,62.7,59.5,58.9,57.6,56.6,92,84,70,29.83,29.76,8,3,16,0.00
2013-9-10,72.1,65.5,60.1,58.9,57.4,56.4,88,76,61,29.93,29.81,12,3,19,0.00
2013-9-11,74.0,64.5,61.0,59.5,54.4,-99.9,85,74,59,30.00,29.93,8,-19,17,0.00
2013-9-12,78.1,66.4,56.6,60.3,57.5,52.8,88,74,52,29.94,29.83,9,3,15,0.00
2013-9-13,78.1,67.2,57.0,61.6,58.1,53.2,89,74,50,29.83,29.67,7,2,16,0.01
2013-9-14,77.9,67.9,58.9,61.2,58.0,54.1,86,72,51,29.72,29.65,8,2,15,0.00
2013-9-15,76.7,67.7,58.4,62.5,58.6,54.5,88,74,54,29.77,29.67,8,2,15,0.00
2013-9-16,74.6,65.2,58.6,61.2,57.9,54.4,89,78,60,29.83,29.75,9,2,16,0.00
2013-9-17,73.2,64.4,56.9,60.8,57.1,53.4,92,78,55,29.82,29.73,9,2,15,0.01
2013-9-18,74.2,64.5,56.5,59.9,57.3,52.7,89,78,58,29.82,29.74,9,3,17,0.00
2013-9-19,73.5,64.4,57.0,60.6,58.0,53.1,89,80,62,29.83,29.76,8,3,17,0.00
2013-9-20,70.3,65.3,63.4,60.7,58.8,57.6,86,80,70,29.89,29.81,7,3,12,0.00
2013-9-21,73.5,63.7,59.6,60.5,53.6,-99.9,85,75,55,29.92,29.79,13,-24,22,0.00
2013-9-22,76.1,63.7,54.7,57.3,53.8,42.8,89,73,32,29.85,29.76,9,2,16,0.01
2013-9-23,81.2,33.3,54.2,55.0,-22.8,-99.9,77,31,28,29.86,29.81,10,-481,12,0.00
2013-9-24,71.6,64.6,61.3,58.4,57.2,53.6,85,78,53,29.85,29.83,3,1,6,0.00
2013-9-25,72.8,63.1,54.1,58.4,53.8,49.1,85,73,49,29.84,29.68,9,3,17,0.00
2013-9-26,72.5,63.2,56.6,55.5,50.1,42.5,80,64,35,29.90,29.72,14,4,29,0.00
2013-9-27,81.4,66.0,49.8,49.1,36.1,24.8,78,40,15,29.99,29.89,12,4,22,0.00
2013-9-28,81.8,67.5,56.2,48.0,36.2,27.9,54,34,14,30.03,29.96,10,4,16,0.00
2013-9-29,78.3,65.4,52.2,57.0,44.3,32.1,81,49,23,30.06,29.97,9,3,15,0.00
2013-9-30,77.9,64.7,52.2,57.4,49.8,40.0,81,61,27,29.97,29.83,9,2,16,0.00
2013-10-1,74.7,63.8,53.5,59.4,55.1,48.8,85,74,58,29.93,29.86,9,2,18,0.00
2013-10-2,73.7,63.1,56.6,58.9,55.7,51.8,87,78,54,29.97,29.89,9,3,17,0.00
2013-10-3,70.4,63.2,56.9,58.1,55.8,52.7,89,77,62,29.93,29.82,8,3,16,0.00
2013-10-4,85.9,62.0,53.2,56.7,18.2,-99.9,89,37,8,30.03,29.87,20,-103,33,0.00
2013-10-5,89.5,78.0,63.2,45.2,23.7,15.6,38,15,7,30.12,30.02,16,6,35,0.00
2013-10-6,89.5,75.2,62.6,50.7,29.3,17.1,52,22,7,30.07,29.96,12,4,18,0.00
2013-10-7,74.2,63.8,53.9,57.2,47.0,25.1,86,57,27,29.97,29.91,10,3,15,0.00
2013-10-8,70.1,60.3,49.1,56.0,52.1,43.8,89,75,60,29.93,29.82,12,4,22,0.00
2013-10-9,63.7,59.4,50.4,53.2,49.3,43.5,81,70,51,29.82,29.69,14,6,24,0.00
2013-10-10,66.9,41.3,49.6,51.1,0.3,-99.9,80,43,52,30.02,29.79,13,-323,22,0.00
2013-10-11,68.6,58.7,48.8,54.3,50.2,44.3,86,74,54,30.05,29.96,8,3,15,0.00
2013-10-12,69.9,41.8,48.8,55.6,9.1,-99.9,88,57,57,29.97,29.90,7,-279,15,0.00
2013-10-13,68.6,59.7,52.3,54.8,52.0,49.2,89,77,55,30.02,29.94,8,3,14,0.00
2013-10-14,74.6,39.2,49.6,55.0,1.5,-99.9,88,51,48,30.02,29.92,7,-320,12,0.01
2013-10-15,85.7,67.6,56.5,52.2,33.7,-99.9,75,35,12,29.95,29.88,10,-18,18,0.00
2013-10-16,84.1,61.7,56.2,43.0,17.7,-99.9,50,24,10,30.06,29.95,12,-102,17,0.00
2013-10-17,78.1,63.5,52.2,56.3,40.5,28.4,84,47,17,30.03,29.93,8,2,13,0.00
2013-10-18,76.8,60.4,49.8,58.1,44.3,-99.9,84,63,34,30.00,29.94,9,-25,16,0.00
2013-10-19,75.1,46.2,50.5,55.9,9.5,-99.9,87,44,29,30.02,29.96,8,-250,14,0.00
2013-10-20,69.6,59.4,48.3,57.7,52.3,42.1,86,78,64,29.99,29.90,9,2,14,0.00
2013-10-21,67.4,39.4,54.4,55.9,2.7,-99.9,89,56,65,29.99,29.91,7,-332,14,0.00
2013-10-22,67.1,45.3,54.8,55.6,13.0,-99.9,89,57,64,30.01,29.91,7,-258,12,0.00
2013-10-23,66.3,58.0,56.3,54.8,48.3,-99.9,88,77,64,29.99,29.91,7,-32,13,0.00
2013-10-24,68.3,43.5,59.8,54.7,6.7,-99.9,80,50,58,30.05,29.95,8,-304,16,0.00
2013-10-25,67.8,57.4,54.1,56.1,47.4,-99.9,87,77,65,30.14,30.02,7,-39,13,0.00
2013-10-26,70.3,55.4,47.9,57.6,44.4,-99.9,92,77,58,30.09,29.97,6,-54,13,0.00
2013-10-27,67.4,51.9,47.0,56.9,36.1,-99.9,90,72,66,29.97,29.81,10,-101,18,0.01
2013-10-28,65.6,56.6,57.0,51.5,40.2,-99.9,79,63,38,29.92,29.78,11,-49,23,0.00
2013-10-29,65.5,57.9,48.8,51.6,48.4,44.5,86,72,52,29.98,29.93,9,3,19,0.00
2013-10-30,68.9,58.5,47.6,52.6,47.5,42.5,86,69,39,30.07,29.99,8,4,15,0.00
2013-10-31,72.8,59.0,48.2,54.7,43.7,34.9,85,60,27,30.08,30.00,8,4,13,0.00
2013-11-1,78.8,62.0,48.5,55.0,42.9,34.3,78,53,20,30.09,29.95,7,2,12,0.00
2013-11-2,78.8,63.6,53.5,56.9,43.3,30.8,87,52,19,29.97,29.88,8,3,17,0.00
2013-11-3,67.9,57.4,47.6,54.5,49.3,40.2,87,75,58,29.92,29.83,8,2,16,0.00
2013-11-4,69.4,59.7,51.7,54.1,50.9,46.1,85,73,56,29.94,29.79,9,2,17,0.00
2013-11-5,76.3,55.2,49.2,46.3,12.4,-99.9,82,29,10,30.16,29.95,9,-123,22,0.00
2013-11-6,81.8,64.6,50.5,48.1,27.0,12.5,58,28,8,30.19,30.11,8,3,19,0.00
2013-11-7,82.4,58.9,52.3,51.0,19.7,-99.9,67,29,13,30.11,29.99,12,-88,15,0.00
2013-11-8,72.3,58.4,48.6,57.2,41.1,-99.9,86,57,26,30.02,29.93,11,-12,18,0.00
2013-11-9,67.6,55.8,47.7,55.1,45.0,-99.9,88,71,53,30.07,29.98,9,-18,16,0.00
2013-11-10,79.2,57.6,47.3,54.4,47.2,29.5,86,71,17,30.10,30.03,10,3,19,0.01
2013-11-11,74.0,57.5,44.8,55.9,42.5,-99.9,87,63,27,30.13,30.04,7,-19,9,0.01
2013-11-12,75.3,60.4,52.5,56.2,49.5,39.9,87,69,28,30.16,30.07,8,2,10,0.00
2013-11-13,83.8,67.7,52.3,55.6,41.6,28.6,75,42,17,30.06,29.90,10,3,14,0.00
2013-11-14,80.3,65.6,54.5,56.5,46.2,29.5,89,54,20,29.92,29.75,9,3,11,0.00
2013-11-15,67.8,51.9,51.1,55.0,33.7,-99.9,92,69,57,29.76,29.68,9,-116,12,0.00
2013-11-16,66.1,58.4,51.0,54.3,51.0,46.6,86,77,62,29.93,29.73,11,3,15,0.00
2013-11-17,67.1,58.5,51.1,53.1,50.0,46.7,87,75,50,30.09,29.93,9,2,14,0.00
2013-11-18,66.4,59.9,51.6,53.2,51.2,47.5,86,74,59,30.16,30.06,7,4,11,0.00
2013-11-19,65.3,52.8,51.4,53.2,37.9,-99.9,87,71,59,30.09,29.95,6,-82,8,0.00
2013-11-20,66.1,59.1,53.3,56.9,52.8,48.5,92,80,59,29.97,29.86,9,3,11,0.19
2013-11-21,62.0,56.2,56.9,57.7,46.1,-99.9,93,78,57,29.88,29.82,8,-46,11,0.15
2013-11-22,61.5,50.2,55.0,41.6,21.3,-99.9,57,43,41,29.97,29.86,10,-115,22,0.00
2013-11-23,65.3,53.1,53.9,39.8,25.5,-99.9,58,43,34,30.09,29.96,10,-88,13,0.00
2013-11-24,68.6,55.9,49.5,48.2,36.1,-99.9,80,54,30,30.20,30.08,10,-38,11,0.00
2013-11-25,69.9,49.0,47.0,49.4,21.3,-99.9,78,51,31,30.24,30.15,9,-145,12,0.00
2013-11-26,69.9,57.5,46.7,52.6,42.9,-99.9,78,61,47,30.18,30.02,8,-12,8,0.00
2013-11-27,61.2,21.4,52.8,53.3,-46.9,-99.9,91,23,41,30.02,29.86,3,-628,5,0.00
2013-11-28,68.9,51.5,47.9,55.0,32.1,-99.9,92,65,33,30.03,29.88,14,-109,16,0.00
2013-11-29,68.1,35.2,52.8,52.4,-13.6,-99.9,81,39,45,30.18,30.03,12,-421,13,0.00
2013-11-30,72.1,59.1,49.8,52.0,43.2,37.9,77,58,30,30.18,30.08,8,3,12,0.00
2013-12-1,77.2,53.4,52.2,44.8,20.5,-99.9,61,38,19,30.22,30.10,10,-114,15,0.00
2013-12-2,73.0,58.1,50.5,50.6,34.2,-99.9,81,46,23,30.11,29.89,10,-24,12,0.00
2013-12-3,64.5,44.6,43.5,52.8,14.8,-99.9,75,52,56,29.89,29.72,14,-204,16,0.00
2013-12-4,60.1,45.6,38.8,41.1,18.9,-99.9,84,47,23,29.96,29.76,7,-84,10,0.00
2013-12-5,59.5,47.4,39.2,35.4,28.1,22.2,68,48,27,30.10,29.94,8,3,11,0.00
2013-12-6,59.2,46.7,37.5,39.0,31.9,23.8,79,57,42,30.18,30.10,10,4,12,0.00
2013-12-7,57.3,44.3,36.9,49.5,31.0,-99.9,91,68,37,30.12,29.97,15,-30,18,0.11
2013-12-8,54.4,41.7,34.6,34.0,23.0,-99.9,77,55,31,30.21,30.10,7,-31,9,0.01
2013-12-9,57.0,45.1,40.3,20.1,-5.1,-99.9,44,16,10,30.33,30.19,12,-101,19,0.00
2013-12-10,66.8,50.1,45.2,41.2,4.8,-99.9,65,21,9,30.28,30.10,10,-59,13,0.00
2013-12-11,71.5,48.6,44.5,24.9,-2.8,-99.9,28,16,10,30.16,30.10,7,-140,13,0.00
2013-12-12,66.1,49.7,46.8,48.6,16.5,-99.9,80,38,20,30.21,30.13,9,-117,12,0.00
2013-12-13,63.4,28.8,42.3,48.5,-22.7,-99.9,85,38,40,30.22,30.14,6,-458,9,0.00
2013-12-14,74.0,62.4,42.1,39.3,22.9,17.8,86,27,13,30.29,30.19,11,5,16,0.00
2013-12-15,81.4,64.3,51.0,39.2,24.6,16.9,45,24,9,30.26,30.08,8,4,12,0.00
2013-12-16,81.1,65.9,58.3,42.4,26.7,-99.9,52,25,13,30.13,30.03,7,-22,10,0.00
2013-12-17,78.6,66.4,59.3,52.2,37.2,22.9,69,37,20,30.11,29.97,7,2,10,0.00
2013-12-18,64.3,42.2,55.1,54.7,6.4,-99.9,87,52,38,29.98,29.85,9,-293,11,0.00
2013-12-19,58.1,51.0,44.8,49.2,37.3,-99.9,83,68,51,29.84,29.70,10,-45,18,0.00
2013-12-20,66.4,51.0,40.3,44.2,38.7,31.3,84,66,29,29.93,29.80,8,3,11,0.00
2013-12-21,62.0,50.6,41.1,49.6,40.2,30.2,86,68,55,30.09,29.91,9,3,14,0.00
2013-12-22,64.7,51.7,42.3,50.2,44.5,38.4,87,77,55,30.26,30.08,9,3,10,0.00
2013-12-23,75.1,56.2,44.3,52.5,39.9,-99.9,86,61,20,30.31,30.20,9,-4,15,0.00
2013-12-24,80.5,58.3,51.0,47.6,30.6,-99.9,66,42,16,30.20,30.08,7,-46,11,0.00
2013-12-25,78.5,71.7,67.8,30.4,22.2,11.5,24,16,9,30.21,30.11,10,4,20,0.00
2013-12-26,80.9,65.6,54.2,34.5,9.3,-99.9,39,13,6,30.17,30.06,8,-39,13,0.00
2013-12-27,80.3,62.0,50.7,44.2,23.5,12.7,57,26,9,30.14,30.02,8,3,10,0.00
2013-12-28,69.6,52.8,45.4,51.8,24.3,-99.9,81,43,20,30.02,29.92,8,-75,10,0.00
2013-12-29,75.1,56.4,42.1,38.7,13.4,-99.9,81,29,9,30.13,30.00,11,-52,21,0.00
2013-12-30,71.6,38.4,46.4,43.0,-16.7,-99.9,66,23,15,30.25,30.13,8,-360,12,0.00
2013-12-31,63.7,34.7,41.8,49.9,-7.1,-99.9,82,39,28,30.19,30.08,5,-292,5,0.00
2014-1-1,66.9,52.6,40.9,53.2,43.5,34.1,86,73,50,30.14,30.05,5,2,8,0.00
2014-1-2,75.3,57.4,48.0,43.8,24.0,-99.9,79,34,20,30.10,29.99,7,-67,9,0.00